createdAt,value
2018-03-04T00:00:09.462Z,99532.39
2018-03-04T00:01:12.862Z,99530.61
2018-03-04T00:02:16.340Z,99528.41
2018-03-04T00:03:19.671Z,99530.98
2018-03-04T00:04:23.344Z,99530.98
2018-03-04T00:05:26.713Z,99526.63
2018-03-04T00:06:30.200Z,99525.23
2018-03-04T00:07:33.509Z,99527.80
2018-03-04T00:08:36.886Z,99527.28
2018-03-04T00:09:40.255Z,99529.44
2018-03-04T00:10:43.585Z,99524.11
2018-03-04T00:11:46.953Z,99526.69
2018-03-04T00:12:50.346Z,99525.33
2018-03-04T00:13:53.745Z,99526.12
2018-03-04T00:14:57.079Z,99523.92
2018-03-04T00:16:00.457Z,99529.97
2018-03-04T00:17:03.858Z,99529.88
2018-03-04T00:18:07.187Z,99520.17
2018-03-04T00:19:10.512Z,99527.08
2018-03-04T00:20:13.827Z,99521.41
2018-03-04T00:21:17.146Z,99525.76
2018-03-04T00:22:20.548Z,99527.49
2018-03-04T00:23:23.894Z,99534.52
2018-03-04T00:24:27.284Z,99524.02
2018-03-04T00:25:30.636Z,99522.30
2018-03-04T00:26:34.015Z,99528.43
2018-03-04T00:27:37.330Z,99521.87
2018-03-04T00:28:40.689Z,99528.09
2018-03-04T00:29:44.080Z,99523.78
2018-03-04T00:30:47.493Z,99526.36
2018-03-04T00:31:50.879Z,99524.11
2018-03-04T00:32:54.195Z,99529.36
2018-03-04T00:33:57.549Z,99530.16
2018-03-04T00:35:00.928Z,99526.60
2018-03-04T00:36:04.392Z,99527.87
2018-03-04T00:37:07.782Z,99532.56
2018-03-04T00:38:11.113Z,99534.25
2018-03-04T00:39:14.513Z,99527.69
2018-03-04T00:40:17.855Z,99532.47
2018-03-04T00:41:21.178Z,99522.91
2018-03-04T00:42:24.521Z,99529.47
2018-03-04T00:43:27.945Z,99532.09
2018-03-04T00:44:31.297Z,99528.58
2018-03-04T00:45:34.686Z,99525.53
2018-03-04T00:46:38.176Z,99532.05
2018-03-04T00:47:41.480Z,99527.69
2018-03-04T00:48:44.821Z,99525.11
2018-03-04T00:49:48.228Z,99531.20
2018-03-04T00:50:51.559Z,99533.83
2018-03-04T00:51:54.961Z,99529.47
2018-03-04T00:52:58.256Z,99527.69
2018-03-04T00:54:01.646Z,99536.35
2018-03-04T00:55:04.981Z,99527.64
2018-03-04T00:56:08.347Z,99531.11
2018-03-04T00:57:11.652Z,99531.52
2018-03-04T00:58:14.985Z,99527.16
2018-03-04T00:59:18.329Z,99525.06
2018-03-04T01:00:21.740Z,99525.19
2018-03-04T01:01:25.075Z,99523.45
2018-03-04T01:02:28.501Z,99523.88
2018-03-04T01:03:31.895Z,99526.92
2018-03-04T01:04:35.431Z,99526.42
2018-03-04T01:05:38.856Z,99526.38
2018-03-04T01:06:42.245Z,99524.59
2018-03-04T01:07:45.584Z,99534.25
2018-03-04T01:08:48.977Z,99532.89
2018-03-04T01:09:52.303Z,99533.78
2018-03-04T01:10:55.732Z,99535.93
2018-03-04T01:11:59.072Z,99533.30
2018-03-04T01:13:02.444Z,99531.57
2018-03-04T01:14:05.802Z,99531.16
2018-03-04T01:15:09.249Z,99533.30
2018-03-04T01:16:12.565Z,99530.27
2018-03-04T01:17:15.993Z,99531.11
2018-03-04T01:18:19.411Z,99533.17
2018-03-04T01:19:22.776Z,99524.83
2018-03-04T01:20:26.082Z,99524.31
2018-03-04T01:21:29.433Z,99520.24
2018-03-04T01:22:32.814Z,99519.83
2018-03-04T01:23:36.109Z,99517.09
2018-03-04T01:24:39.571Z,99514.90
2018-03-04T01:25:42.908Z,99515.79
2018-03-04T01:26:46.240Z,99513.58
2018-03-04T01:27:49.573Z,99514.47
2018-03-04T01:28:52.887Z,99516.20
2018-03-04T01:29:56.239Z,99517.99
2018-03-04T01:30:59.705Z,99512.80
2018-03-04T01:32:03.160Z,99512.80
2018-03-04T01:33:06.500Z,99510.17
2018-03-04T01:34:09.903Z,99507.20
2018-03-04T01:35:13.321Z,99507.67
2018-03-04T01:36:16.666Z,99511.61
2018-03-04T01:37:20.049Z,99506.41
2018-03-04T01:38:23.470Z,99509.55
2018-03-04T01:39:26.834Z,99511.76
2018-03-04T01:40:30.181Z,99505.70
2018-03-04T01:41:33.525Z,99505.80
2018-03-04T01:42:36.852Z,99505.42
2018-03-04T01:43:40.230Z,99505.93
2018-03-04T01:44:43.593Z,99502.14
2018-03-04T01:45:46.917Z,99499.64
2018-03-04T01:46:50.261Z,99497.17
2018-03-04T01:47:53.713Z,99500.81
2018-03-04T01:48:57.040Z,99507.98
2018-03-04T01:50:00.344Z,99502.83
2018-03-04T01:51:03.673Z,99499.36
2018-03-04T01:52:07.048Z,99501.52
2018-03-04T01:53:10.499Z,99496.22
2018-03-04T01:54:13.882Z,99500.45
2018-03-04T01:55:17.214Z,99503.12
2018-03-04T01:56:20.529Z,99502.55
2018-03-04T01:57:23.885Z,99496.83
2018-03-04T01:58:27.296Z,99494.08
2018-03-04T01:59:30.616Z,99494.73
2018-03-04T02:00:33.958Z,99495.53
2018-03-04T02:01:37.388Z,99498.11
2018-03-04T02:02:40.758Z,99500.13
2018-03-04T02:03:44.121Z,99501.39
2018-03-04T02:04:47.797Z,99497.74
2018-03-04T02:05:51.133Z,99498.11
2018-03-04T02:06:54.582Z,99500.51
2018-03-04T02:07:57.945Z,99503.50
2018-03-04T02:09:01.454Z,99497.78
2018-03-04T02:10:04.814Z,99499.86
2018-03-04T02:11:08.140Z,99493.25
2018-03-04T02:12:11.600Z,99493.20
2018-03-04T02:13:14.910Z,99492.72
2018-03-04T02:14:18.260Z,99488.31
2018-03-04T02:15:21.662Z,99487.39
2018-03-04T02:16:24.966Z,99487.34
2018-03-04T02:17:28.315Z,99489.08
2018-03-04T02:18:31.704Z,99478.52
2018-03-04T02:19:35.121Z,99481.58
2018-03-04T02:20:38.495Z,99481.99
2018-03-04T02:21:41.824Z,99482.33
2018-03-04T02:22:45.132Z,99487.95
2018-03-04T02:23:48.451Z,99486.12
2018-03-04T02:24:51.844Z,99482.18
2018-03-04T02:25:55.176Z,99488.27
2018-03-04T02:26:58.485Z,99478.58
2018-03-04T02:28:01.873Z,99478.95
2018-03-04T02:29:05.398Z,99478.06
2018-03-04T02:30:08.784Z,99477.96
2018-03-04T02:31:12.134Z,99477.83
2018-03-04T02:32:15.446Z,99477.83
2018-03-04T02:33:18.862Z,99481.30
2018-03-04T02:34:22.182Z,99481.66
2018-03-04T02:35:25.576Z,99481.58
2018-03-04T02:36:28.914Z,99481.11
2018-03-04T02:37:32.242Z,99482.42
2018-03-04T02:38:35.711Z,99478.02
2018-03-04T02:39:39.018Z,99484.16
2018-03-04T02:40:42.371Z,99474.13
2018-03-04T02:41:45.786Z,99474.55
2018-03-04T02:42:49.104Z,99477.59
2018-03-04T02:43:52.453Z,99473.66
2018-03-04T02:44:55.848Z,99475.81
2018-03-04T02:45:59.284Z,99474.50
2018-03-04T02:47:02.605Z,99473.66
2018-03-04T02:48:05.966Z,99477.13
2018-03-04T02:49:09.337Z,99473.60
2018-03-04T02:50:12.724Z,99477.91
2018-03-04T02:51:16.459Z,99473.97
2018-03-04T02:52:19.774Z,99474.45
2018-03-04T02:53:23.125Z,99475.34
2018-03-04T02:54:26.425Z,99478.86
2018-03-04T02:55:29.797Z,99469.19
2018-03-04T02:56:33.184Z,99472.23
2018-03-04T02:57:36.487Z,99470.03
2018-03-04T02:59:03.117Z,99464.23
2018-03-04T03:00:06.461Z,99464.83
2018-03-04T03:01:09.805Z,99471.77
2018-03-04T03:02:13.131Z,99467.75
2018-03-04T03:03:16.465Z,99467.22
2018-03-04T03:04:19.838Z,99463.34
2018-03-04T03:05:23.270Z,99463.34
2018-03-04T03:06:26.795Z,99461.55
2018-03-04T03:07:30.130Z,99464.60
2018-03-04T03:08:33.442Z,99460.14
2018-03-04T03:09:36.880Z,99460.05
2018-03-04T03:10:40.260Z,99458.33
2018-03-04T03:11:43.569Z,99459.59
2018-03-04T03:12:46.967Z,99466.15
2018-03-04T03:13:50.316Z,99459.53
2018-03-04T03:14:53.624Z,99457.75
2018-03-04T03:15:57.012Z,99459.40
2018-03-04T03:17:00.353Z,99447.19
2018-03-04T03:18:03.765Z,99447.58
2018-03-04T03:19:07.124Z,99447.11
2018-03-04T03:20:10.422Z,99439.23
2018-03-04T03:21:13.766Z,99439.60
2018-03-04T03:22:17.082Z,99432.14
2018-03-04T03:23:20.487Z,99438.29
2018-03-04T03:24:23.821Z,99438.66
2018-03-04T03:25:27.209Z,99440.44
2018-03-04T03:26:30.527Z,99436.08
2018-03-04T03:27:33.860Z,99433.83
2018-03-04T03:28:37.211Z,99436.87
2018-03-04T03:29:40.543Z,99439.00
2018-03-04T03:30:43.881Z,99427.97
2018-03-04T03:31:47.241Z,99435.00
2018-03-04T03:32:50.554Z,99432.01
2018-03-04T03:33:53.957Z,99432.43
2018-03-04T03:34:57.268Z,99431.06
2018-03-04T03:36:00.620Z,99433.69
2018-03-04T03:37:03.938Z,99428.02
2018-03-04T03:38:07.275Z,99424.08
2018-03-04T03:39:10.717Z,99429.70
2018-03-04T03:40:14.072Z,99424.45
2018-03-04T03:41:17.408Z,99426.55
2018-03-04T03:42:20.753Z,99423.92
2018-03-04T03:43:24.078Z,99427.31
2018-03-04T03:44:27.580Z,99431.66
2018-03-04T03:45:30.916Z,99429.87
2018-03-04T03:46:34.221Z,99431.56
2018-03-04T03:47:37.665Z,99431.06
2018-03-04T03:48:41.016Z,99445.45
2018-03-04T03:49:44.441Z,99434.48
2018-03-04T03:50:47.784Z,99434.38
2018-03-04T03:51:51.085Z,99433.48
2018-03-04T03:52:54.449Z,99431.66
2018-03-04T03:53:57.778Z,99422.89
2018-03-04T03:55:01.166Z,99425.88
2018-03-04T03:56:04.564Z,99421.10
2018-03-04T03:57:07.928Z,99420.69
2018-03-04T03:58:11.221Z,99421.47
2018-03-04T03:59:14.608Z,99419.69
2018-03-04T04:00:18.032Z,99425.70
2018-03-04T04:01:21.334Z,99422.65
2018-03-04T04:02:24.825Z,99418.29
2018-03-04T04:03:28.132Z,99413.03
2018-03-04T04:04:31.450Z,99410.91
2018-03-04T04:05:35.018Z,99404.34
2018-03-04T04:06:38.424Z,99411.25
2018-03-04T04:07:41.773Z,99411.86
2018-03-04T04:08:45.162Z,99414.12
2018-03-04T04:09:48.562Z,99411.67
2018-03-04T04:10:51.920Z,99416.33
2018-03-04T04:11:55.268Z,99416.56
2018-03-04T04:12:58.648Z,99411.42
2018-03-04T04:14:02.042Z,99419.48
2018-03-04T04:15:05.360Z,99416.58
2018-03-04T04:16:08.747Z,99420.14
2018-03-04T04:17:12.106Z,99410.59
2018-03-04T04:18:15.408Z,99416.73
2018-03-04T04:19:18.748Z,99414.19
2018-03-04T04:20:22.109Z,99404.63
2018-03-04T04:21:25.470Z,99415.60
2018-03-04T04:22:28.806Z,99412.69
2018-03-04T04:23:32.191Z,99412.69
2018-03-04T04:24:35.524Z,99418.41
2018-03-04T04:25:38.956Z,99415.84
2018-03-04T04:26:42.295Z,99419.30
2018-03-04T04:27:45.626Z,99415.23
2018-03-04T04:28:48.949Z,99418.75
2018-03-04T04:29:52.357Z,99410.83
2018-03-04T04:30:55.679Z,99410.77
2018-03-04T04:31:59.013Z,99413.34
2018-03-04T04:33:02.349Z,99416.73
2018-03-04T04:34:05.681Z,99413.58
2018-03-04T04:35:09.023Z,99415.27
2018-03-04T04:36:12.340Z,99417.75
2018-03-04T04:37:15.732Z,99416.76
2018-03-04T04:38:19.086Z,99416.63
2018-03-04T04:39:22.397Z,99415.63
2018-03-04T04:40:25.803Z,99409.39
2018-03-04T04:41:29.132Z,99412.39
2018-03-04T04:42:32.522Z,99413.66
2018-03-04T04:43:35.837Z,99413.60
2018-03-04T04:44:39.214Z,99417.35
2018-03-04T04:45:42.519Z,99420.73
2018-03-04T04:46:45.841Z,99417.64
2018-03-04T04:47:49.232Z,99417.06
2018-03-04T04:48:52.579Z,99410.83
2018-03-04T04:49:55.906Z,99414.25
2018-03-04T04:50:59.290Z,99416.27
2018-03-04T04:52:02.623Z,99413.11
2018-03-04T04:53:06.040Z,99410.02
2018-03-04T04:54:09.347Z,99414.70
2018-03-04T04:55:12.694Z,99418.59
2018-03-04T04:56:16.147Z,99425.06
2018-03-04T04:57:19.557Z,99417.04
2018-03-04T04:58:22.936Z,99417.46
2018-03-04T04:59:26.292Z,99416.05
2018-03-04T05:00:29.572Z,99419.42
2018-03-04T05:01:32.999Z,99420.22
2018-03-04T05:02:36.415Z,99409.66
2018-03-04T05:03:39.797Z,99408.67
2018-03-04T05:04:43.198Z,99407.73
2018-03-04T05:05:46.833Z,99411.20
2018-03-04T05:06:50.229Z,99410.72
2018-03-04T05:07:53.549Z,99409.36
2018-03-04T05:08:56.910Z,99408.05
2018-03-04T05:10:00.297Z,99415.50
2018-03-04T05:11:03.603Z,99416.68
2018-03-04T05:12:06.957Z,99402.79
2018-03-04T05:13:10.303Z,99414.95
2018-03-04T05:14:13.710Z,99408.33
2018-03-04T05:15:17.061Z,99413.11
2018-03-04T05:16:20.432Z,99410.90
2018-03-04T05:17:23.745Z,99408.27
2018-03-04T05:18:27.086Z,99418.31
2018-03-04T05:19:30.478Z,99412.16
2018-03-04T05:20:33.795Z,99409.95
2018-03-04T05:21:37.194Z,99409.03
2018-03-04T05:22:40.571Z,99406.91
2018-03-04T05:23:43.895Z,99409.53
2018-03-04T05:24:47.258Z,99407.72
2018-03-04T05:25:50.565Z,99409.03
2018-03-04T05:26:53.963Z,99412.97
2018-03-04T05:27:57.283Z,99411.18
2018-03-04T05:29:00.660Z,99412.50
2018-03-04T05:30:04.058Z,99408.50
2018-03-04T05:31:07.395Z,99406.77
2018-03-04T05:32:10.715Z,99404.14
2018-03-04T05:33:14.131Z,99408.98
2018-03-04T05:34:17.501Z,99413.70
2018-03-04T05:35:20.874Z,99408.88
2018-03-04T05:36:24.233Z,99412.67
2018-03-04T05:37:27.608Z,99411.30
2018-03-04T05:38:31.000Z,99407.36
2018-03-04T05:39:34.333Z,99412.63
2018-03-04T05:40:37.712Z,99407.84
2018-03-04T05:41:41.056Z,99420.08
2018-03-04T05:42:44.380Z,99413.52
2018-03-04T05:43:47.756Z,99414.83
2018-03-04T05:44:51.096Z,99409.58
2018-03-04T05:45:54.564Z,99412.63
2018-03-04T05:46:57.919Z,99415.25
2018-03-04T05:48:01.321Z,99414.30
2018-03-04T05:49:04.646Z,99416.03
2018-03-04T05:50:08.039Z,99419.89
2018-03-04T05:51:11.452Z,99416.88
2018-03-04T05:52:14.806Z,99418.95
2018-03-04T05:53:18.121Z,99416.21
2018-03-04T05:54:21.481Z,99422.31
2018-03-04T05:55:24.833Z,99421.00
2018-03-04T05:56:28.342Z,99420.02
2018-03-04T05:57:31.744Z,99425.22
2018-03-04T05:58:35.133Z,99431.79
2018-03-04T05:59:38.502Z,99424.33
2018-03-04T06:00:41.825Z,99422.48
2018-03-04T06:01:45.234Z,99428.13
2018-03-04T06:02:48.599Z,99425.03
2018-03-04T06:03:51.945Z,99430.28
2018-03-04T06:04:55.372Z,99427.73
2018-03-04T06:05:58.831Z,99430.37
2018-03-04T06:07:02.169Z,99433.75
2018-03-04T06:08:05.515Z,99434.17
2018-03-04T06:09:08.881Z,99437.64
2018-03-04T06:10:12.224Z,99430.65
2018-03-04T06:11:15.601Z,99434.59
2018-03-04T06:12:19.063Z,99427.97
2018-03-04T06:13:22.365Z,99427.60
2018-03-04T06:14:25.701Z,99426.23
2018-03-04T06:15:29.091Z,99424.08
2018-03-04T06:16:32.484Z,99426.66
2018-03-04T06:17:35.845Z,99429.23
2018-03-04T06:18:39.281Z,99426.19
2018-03-04T06:19:42.638Z,99426.98
2018-03-04T06:20:45.977Z,99429.23
2018-03-04T06:21:49.337Z,99428.30
2018-03-04T06:22:52.728Z,99420.51
2018-03-04T06:23:56.029Z,99424.50
2018-03-04T06:24:59.356Z,99424.97
2018-03-04T06:26:02.674Z,99427.66
2018-03-04T06:27:06.039Z,99427.66
2018-03-04T06:28:09.372Z,99431.18
2018-03-04T06:29:12.739Z,99433.95
2018-03-04T06:30:16.121Z,99429.27
2018-03-04T06:31:19.533Z,99429.45
2018-03-04T06:32:22.916Z,99430.41
2018-03-04T06:33:26.462Z,99424.81
2018-03-04T06:34:29.765Z,99424.45
2018-03-04T06:35:33.090Z,99427.13
2018-03-04T06:36:36.477Z,99428.44
2018-03-04T06:37:39.771Z,99426.70
2018-03-04T06:38:43.133Z,99432.05
2018-03-04T06:39:46.466Z,99438.62
2018-03-04T06:40:49.834Z,99436.80
2018-03-04T06:41:53.211Z,99444.30
2018-03-04T06:42:56.520Z,99443.37
2018-03-04T06:44:00.913Z,99442.00
2018-03-04T06:45:04.320Z,99436.33
2018-03-04T06:46:07.738Z,99438.90
2018-03-04T06:47:11.052Z,99440.53
2018-03-04T06:48:14.400Z,99438.28
2018-03-04T06:49:17.781Z,99437.77
2018-03-04T06:50:21.157Z,99441.17
2018-03-04T06:51:24.493Z,99442.41
2018-03-04T06:52:27.953Z,99445.34
2018-03-04T06:53:31.338Z,99445.63
2018-03-04T06:54:34.691Z,99449.94
2018-03-04T06:55:38.007Z,99437.59
2018-03-04T06:56:41.348Z,99443.13
2018-03-04T06:57:44.727Z,99453.45
2018-03-04T06:58:48.039Z,99441.99
2018-03-04T06:59:51.374Z,99442.72
2018-03-04T07:00:54.760Z,99441.75
2018-03-04T07:01:58.089Z,99441.64
2018-03-04T07:03:01.457Z,99444.64
2018-03-04T07:04:04.804Z,99445.95
2018-03-04T07:05:08.190Z,99445.00
2018-03-04T07:06:11.578Z,99441.84
2018-03-04T07:07:14.919Z,99443.50
2018-03-04T07:08:18.259Z,99447.80
2018-03-04T07:09:21.589Z,99440.70
2018-03-04T07:10:25.037Z,99443.67
2018-03-04T07:11:28.374Z,99435.30
2018-03-04T07:12:31.720Z,99433.89
2018-03-04T07:13:35.054Z,99432.44
2018-03-04T07:14:38.621Z,99440.16
2018-03-04T07:15:41.992Z,99439.60
2018-03-04T07:16:45.317Z,99435.18
2018-03-04T07:17:48.696Z,99442.88
2018-03-04T07:18:52.058Z,99437.56
2018-03-04T07:19:55.435Z,99434.88
2018-03-04T07:20:58.776Z,99431.22
2018-03-04T07:22:02.230Z,99434.21
2018-03-04T07:23:05.593Z,99437.96
2018-03-04T07:24:08.922Z,99433.91
2018-03-04T07:25:12.243Z,99440.77
2018-03-04T07:26:15.599Z,99438.92
2018-03-04T07:27:19.039Z,99435.77
2018-03-04T07:28:22.438Z,99434.87
2018-03-04T07:29:25.774Z,99440.04
2018-03-04T07:30:29.055Z,99434.78
2018-03-04T07:31:32.480Z,99436.04
2018-03-04T07:32:35.955Z,99432.46
2018-03-04T07:33:39.389Z,99430.05
2018-03-04T07:34:42.800Z,99438.17
2018-03-04T07:35:46.188Z,99443.74
2018-03-04T07:36:49.545Z,99442.28
2018-03-04T07:37:53.110Z,99440.08
2018-03-04T07:38:56.521Z,99445.28
2018-03-04T07:39:59.824Z,99439.49
2018-03-04T07:41:03.153Z,99444.19
2018-03-04T07:42:06.583Z,99434.78
2018-03-04T07:43:09.927Z,99434.20
2018-03-04T07:44:13.298Z,99438.52
2018-03-04T07:45:16.622Z,99433.25
2018-03-04T07:46:20.014Z,99434.26
2018-03-04T07:47:23.504Z,99433.00
2018-03-04T07:48:26.910Z,99428.88
2018-03-04T07:49:30.235Z,99436.50
2018-03-04T07:50:33.555Z,99431.48
2018-03-04T07:51:36.964Z,99432.48
2018-03-04T07:52:40.369Z,99437.47
2018-03-04T07:53:43.751Z,99438.84
2018-03-04T07:54:47.167Z,99432.04
2018-03-04T07:55:50.627Z,99434.73
2018-03-04T07:56:53.988Z,99436.87
2018-03-04T07:57:57.341Z,99436.04
2018-03-04T07:59:00.684Z,99443.88
2018-03-04T08:00:04.027Z,99444.72
2018-03-04T08:01:07.381Z,99440.77
2018-03-04T08:02:10.801Z,99432.88
2018-03-04T08:03:14.256Z,99435.79
2018-03-04T08:04:17.574Z,99442.73
2018-03-04T08:05:20.960Z,99438.64
2018-03-04T08:06:24.551Z,99442.53
2018-03-04T08:07:27.899Z,99442.48
2018-03-04T08:08:31.243Z,99443.32
2018-03-04T08:09:34.675Z,99446.28
2018-03-04T08:10:37.997Z,99442.34
2018-03-04T08:11:41.314Z,99442.28
2018-03-04T08:12:44.639Z,99446.55
2018-03-04T08:13:48.003Z,99448.14
2018-03-04T08:14:51.337Z,99443.61
2018-03-04T08:15:54.822Z,99455.67
2018-03-04T08:16:58.146Z,99453.20
2018-03-04T08:18:01.564Z,99448.87
2018-03-04T08:19:04.916Z,99452.09
2018-03-04T08:20:08.270Z,99458.73
2018-03-04T08:21:11.585Z,99462.22
2018-03-04T08:22:14.918Z,99459.17
2018-03-04T08:23:18.274Z,99453.81
2018-03-04T08:24:33.392Z,99454.56
2018-03-04T08:25:36.736Z,99457.11
2018-03-04T08:26:51.837Z,99455.64
2018-03-04T08:28:06.969Z,99453.61
2018-03-04T08:29:10.276Z,99456.03
2018-03-04T08:30:13.784Z,99455.09
2018-03-04T08:31:17.168Z,99457.20
2018-03-04T08:32:20.463Z,99454.89
2018-03-04T08:33:23.878Z,99453.05
2018-03-04T08:34:27.207Z,99452.19
2018-03-04T08:35:30.571Z,99445.25
2018-03-04T08:36:33.876Z,99434.53
2018-03-04T08:37:37.258Z,99439.59
2018-03-04T08:38:40.644Z,99434.96
2018-03-04T08:39:44.040Z,99438.70
2018-03-04T08:40:47.440Z,99438.11
2018-03-04T08:41:50.848Z,99443.66
2018-03-04T08:42:54.186Z,99445.22
2018-03-04T08:43:57.531Z,99445.48
2018-03-04T08:45:00.847Z,99445.76
2018-03-04T08:46:04.270Z,99438.16
2018-03-04T08:47:07.575Z,99433.57
2018-03-04T08:48:10.991Z,99430.19
2018-03-04T08:49:14.328Z,99433.34
2018-03-04T08:50:17.717Z,99432.16
2018-03-04T08:51:21.100Z,99436.91
2018-03-04T08:52:24.652Z,99437.44
2018-03-04T08:53:27.999Z,99441.52
2018-03-04T08:54:31.367Z,99440.14
2018-03-04T08:55:34.704Z,99441.62
2018-03-04T08:56:38.132Z,99428.72
2018-03-04T08:57:41.419Z,99425.87
2018-03-04T08:58:44.743Z,99430.93
2018-03-04T08:59:48.141Z,99435.63
2018-03-04T09:00:51.489Z,99436.85
2018-03-04T09:01:54.822Z,99428.25
2018-03-04T09:02:58.184Z,99434.06
2018-03-04T09:04:01.607Z,99441.55
2018-03-04T09:05:04.955Z,99428.80
2018-03-04T09:06:08.277Z,99424.42
2018-03-04T09:07:11.949Z,99428.73
2018-03-04T09:08:15.261Z,99429.48
2018-03-04T09:09:18.600Z,99429.78
2018-03-04T09:10:21.959Z,99431.88
2018-03-04T09:11:25.334Z,99435.21
2018-03-04T09:12:28.716Z,99433.74
2018-03-04T09:13:32.049Z,99430.93
2018-03-04T09:14:35.497Z,99419.76
2018-03-04T09:15:38.815Z,99429.28
2018-03-04T09:16:42.223Z,99420.75
2018-03-04T09:17:45.678Z,99424.02
2018-03-04T09:18:49.017Z,99421.68
2018-03-04T09:19:52.355Z,99420.63
2018-03-04T09:20:55.706Z,99424.38
2018-03-04T09:21:59.164Z,99428.36
2018-03-04T09:23:02.498Z,99431.15
2018-03-04T09:24:05.872Z,99428.24
2018-03-04T09:25:09.305Z,99434.09
2018-03-04T09:26:12.605Z,99429.70
2018-03-04T09:27:15.914Z,99431.53
2018-03-04T09:28:19.335Z,99428.92
2018-03-04T09:29:22.779Z,99426.85
2018-03-04T09:30:26.188Z,99428.22
2018-03-04T09:31:29.841Z,99427.56
2018-03-04T09:32:33.168Z,99432.47
2018-03-04T09:33:36.525Z,99430.28
2018-03-04T09:34:39.911Z,99432.58
2018-03-04T09:35:43.350Z,99426.97
2018-03-04T09:36:46.767Z,99432.69
2018-03-04T09:37:50.172Z,99430.55
2018-03-04T09:38:53.569Z,99431.44
2018-03-04T09:39:57.046Z,99432.41
2018-03-04T09:41:00.344Z,99429.50
2018-03-04T09:42:03.818Z,99426.58
2018-03-04T09:43:07.208Z,99423.75
2018-03-04T09:44:10.677Z,99421.86
2018-03-04T09:45:14.004Z,99427.02
2018-03-04T09:46:17.378Z,99417.14
2018-03-04T09:47:20.750Z,99415.12
2018-03-04T09:48:24.076Z,99411.94
2018-03-04T09:49:27.440Z,99419.64
2018-03-04T09:50:30.876Z,99417.20
2018-03-04T09:51:34.205Z,99417.91
2018-03-04T09:52:37.601Z,99419.97
2018-03-04T09:53:40.968Z,99416.02
2018-03-04T09:54:44.353Z,99423.52
2018-03-04T09:55:47.661Z,99419.08
2018-03-04T09:56:51.042Z,99422.20
2018-03-04T09:57:54.447Z,99417.07
2018-03-04T09:58:57.908Z,99410.95
2018-03-04T10:00:01.281Z,99413.53
2018-03-04T10:01:04.615Z,99403.71
2018-03-04T10:02:07.996Z,99407.06
2018-03-04T10:03:11.329Z,99399.08
2018-03-04T10:04:14.813Z,99398.98
2018-03-04T10:05:18.159Z,99394.48
2018-03-04T10:06:21.603Z,99389.81
2018-03-04T10:07:25.274Z,99387.73
2018-03-04T10:08:28.569Z,99383.84
2018-03-04T10:09:31.901Z,99385.77
2018-03-04T10:10:35.271Z,99392.57
2018-03-04T10:11:38.599Z,99391.13
2018-03-04T10:12:41.981Z,99397.51
2018-03-04T10:13:45.334Z,99394.87
2018-03-04T10:14:48.701Z,99390.55
2018-03-04T10:15:52.060Z,99392.45
2018-03-04T10:16:55.382Z,99396.47
2018-03-04T10:17:58.890Z,99392.38
2018-03-04T10:19:02.227Z,99378.80
2018-03-04T10:20:05.529Z,99377.95
2018-03-04T10:21:08.960Z,99383.73
2018-03-04T10:22:12.344Z,99376.77
2018-03-04T10:23:18.521Z,99373.67
2018-03-04T10:24:21.985Z,99373.33
2018-03-04T10:25:25.369Z,99372.48
2018-03-04T10:26:28.862Z,99373.03
2018-03-04T10:27:32.226Z,99372.26
2018-03-04T10:28:35.645Z,99365.00
2018-03-04T10:29:38.959Z,99368.74
2018-03-04T10:30:42.264Z,99364.58
2018-03-04T10:31:45.609Z,99371.31
2018-03-04T10:32:48.932Z,99372.48
2018-03-04T10:33:52.244Z,99371.44
2018-03-04T10:34:55.593Z,99363.83
2018-03-04T10:35:58.990Z,99371.77
2018-03-04T10:37:02.328Z,99366.89
2018-03-04T10:38:05.693Z,99369.95
2018-03-04T10:39:09.036Z,99368.16
2018-03-04T10:40:12.393Z,99372.89
2018-03-04T10:41:15.753Z,99368.28
2018-03-04T10:42:19.094Z,99366.30
2018-03-04T10:43:22.438Z,99370.33
2018-03-04T10:44:25.991Z,99359.88
2018-03-04T10:45:29.381Z,99360.91
2018-03-04T10:46:32.713Z,99365.16
2018-03-04T10:47:36.167Z,99360.29
2018-03-04T10:48:39.553Z,99365.64
2018-03-04T10:49:42.943Z,99355.84
2018-03-04T10:50:46.314Z,99359.69
2018-03-04T10:51:49.744Z,99357.41
2018-03-04T10:52:53.087Z,99356.86
2018-03-04T10:53:56.480Z,99352.70
2018-03-04T10:54:59.889Z,99350.12
2018-03-04T10:56:03.231Z,99354.58
2018-03-04T10:57:06.631Z,99350.91
2018-03-04T10:58:10.136Z,99357.77
2018-03-04T10:59:13.498Z,99353.92
2018-03-04T11:00:16.815Z,99361.24
2018-03-04T11:01:20.189Z,99357.78
2018-03-04T11:02:23.535Z,99360.97
2018-03-04T11:03:26.887Z,99359.35
2018-03-04T11:04:30.179Z,99363.86
2018-03-04T11:05:33.538Z,99357.47
2018-03-04T11:06:37.002Z,99350.14
2018-03-04T11:07:40.479Z,99355.69
2018-03-04T11:08:43.853Z,99355.88
2018-03-04T11:09:47.225Z,99356.81
2018-03-04T11:10:50.601Z,99350.58
2018-03-04T11:11:54.014Z,99352.00
2018-03-04T11:12:57.409Z,99350.81
2018-03-04T11:14:00.799Z,99355.92
2018-03-04T11:15:04.246Z,99357.47
2018-03-04T11:16:07.579Z,99350.16
2018-03-04T11:17:10.909Z,99352.61
2018-03-04T11:18:14.284Z,99347.55
2018-03-04T11:19:17.712Z,99345.87
2018-03-04T11:20:21.090Z,99346.01
2018-03-04T11:21:24.418Z,99338.17
2018-03-04T11:22:28.326Z,99339.98
2018-03-04T11:23:31.790Z,99347.75
2018-03-04T11:24:35.223Z,99339.91
2018-03-04T11:25:38.547Z,99341.14
2018-03-04T11:26:41.892Z,99342.98
2018-03-04T11:27:46.112Z,99337.59
2018-03-04T11:28:49.452Z,99336.69
2018-03-04T11:29:52.874Z,99331.81
2018-03-04T11:30:56.200Z,99334.88
2018-03-04T11:31:59.556Z,99333.14
2018-03-04T11:33:02.933Z,99333.97
2018-03-04T11:34:06.407Z,99331.40
2018-03-04T11:35:09.782Z,99328.08
2018-03-04T11:36:13.165Z,99329.11
2018-03-04T11:37:16.468Z,99318.77
2018-03-04T11:38:19.841Z,99320.73
2018-03-04T11:39:23.231Z,99323.58
2018-03-04T11:40:26.559Z,99320.75
2018-03-04T11:41:29.902Z,99323.55
2018-03-04T11:42:33.217Z,99317.91
2018-03-04T11:43:36.530Z,99317.56
2018-03-04T11:44:39.846Z,99325.91
2018-03-04T11:45:43.298Z,99323.45
2018-03-04T11:46:46.723Z,99322.26
2018-03-04T11:47:50.209Z,99320.25
2018-03-04T11:48:53.697Z,99319.86
2018-03-04T11:49:57.028Z,99315.70
2018-03-04T11:51:00.461Z,99307.95
2018-03-04T11:52:03.844Z,99313.84
2018-03-04T11:53:07.185Z,99310.16
2018-03-04T11:54:10.509Z,99310.41
2018-03-04T11:55:13.918Z,99307.70
2018-03-04T11:56:17.314Z,99308.44
2018-03-04T11:57:20.629Z,99300.44
2018-03-04T11:58:24.036Z,99295.56
2018-03-04T11:59:27.435Z,99300.37
2018-03-04T12:00:30.881Z,99296.05
2018-03-04T12:01:34.299Z,99296.47
2018-03-04T12:02:37.629Z,99298.14
2018-03-04T12:03:40.941Z,99295.14
2018-03-04T12:04:44.322Z,99294.31
2018-03-04T12:05:47.709Z,99288.19
2018-03-04T12:06:51.096Z,99287.28
2018-03-04T12:07:54.515Z,99286.47
2018-03-04T12:08:57.828Z,99283.31
2018-03-04T12:10:01.203Z,99280.18
2018-03-04T12:11:04.512Z,99276.56
2018-03-04T12:12:07.864Z,99276.02
2018-03-04T12:13:11.277Z,99283.30
2018-03-04T12:14:14.600Z,99280.48
2018-03-04T12:15:18.037Z,99275.05
2018-03-04T12:16:21.427Z,99284.43
2018-03-04T12:17:24.791Z,99280.33
2018-03-04T12:18:28.124Z,99272.64
2018-03-04T12:19:31.427Z,99272.41
2018-03-04T12:20:34.761Z,99267.64
2018-03-04T12:21:38.402Z,99272.73
2018-03-04T12:22:41.721Z,99263.66
2018-03-04T12:23:45.106Z,99259.38
2018-03-04T12:24:48.444Z,99269.37